Shiocton, Wisconsin
Current Conditions -  °F | °C
As of 9:45 PM on Saturday 20 Dec 2014 (Local Time) from KATW Reporting Station
Haze Haze  
Wind Chill: 27°   Ceiling: 1900
Heat Index: 27°   Visibility: 5mi
Dew Point: 27°   Wind: 3mph
Humidity: 100%   Direction: NA
Pressure: 30.21"   Gusts: NA
Location:  44.44°N, 88.58°W
Report Text: KATW 210345Z VRB03KT 5SM BR OVC019 M03/M03 A3021
Loading
Personal Weather Stations






























Interactive Weather Map New forecast layout! Learn more

10-Day Weather Forecast

Advertisements
Track Severe Weather on mobile